sensor_id;sensor_type;location;lat;lon;timestamp;pressure;altitude;pressure_sealevel;temperature;humidity
79671;BME280;69137;50.878;8.050;2023-04-24T00:00:23;96977.75;;;9.38;76.21
79671;BME280;69137;50.878;8.050;2023-04-24T00:02:49;96967.56;;;9.68;75.53
79671;BME280;69137;50.878;8.050;2023-04-24T00:05:15;96976.50;;;9.49;76.81
79671;BME280;69137;50.878;8.050;2023-04-24T00:07:44;96970.78;;;9.51;75.78
79671;BME280;69137;50.878;8.050;2023-04-24T00:10:10;96967.47;;;9.54;75.27
79671;BME280;69137;50.878;8.050;2023-04-24T00:12:36;96963.44;;;9.70;73.75
79671;BME280;69137;50.878;8.050;2023-04-24T00:15:02;96967.25;;;9.50;75.20
79671;BME280;69137;50.878;8.050;2023-04-24T00:17:27;96957.22;;;9.65;75.92
79671;BME280;69137;50.878;8.050;2023-04-24T00:19:53;96954.56;;;9.59;76.38
79671;BME280;69137;50.878;8.050;2023-04-24T00:22:27;96962.19;;;9.62;77.60
79671;BME280;69137;50.878;8.050;2023-04-24T00:24:53;96956.19;;;9.60;77.34
79671;BME280;69137;50.878;8.050;2023-04-24T00:27:18;96959.34;;;9.49;76.83
79671;BME280;69137;50.878;8.050;2023-04-24T00:29:44;96959.88;;;9.51;76.80
79671;BME280;69137;50.878;8.050;2023-04-24T00:32:09;96952.34;;;9.61;76.88
79671;BME280;69137;50.878;8.050;2023-04-24T00:34:35;96947.34;;;9.69;75.81
79671;BME280;69137;50.878;8.050;2023-04-24T00:37:00;96940.50;;;9.52;76.60
79671;BME280;69137;50.878;8.050;2023-04-24T00:39:26;96942.13;;;9.53;77.34
79671;BME280;69137;50.878;8.050;2023-04-24T00:41:52;96942.91;;;9.54;77.11
79671;BME280;69137;50.878;8.050;2023-04-24T00:44:18;96957.00;;;9.61;77.04
79671;BME280;69137;50.878;8.050;2023-04-24T00:46:44;96943.22;;;9.71;77.16
79671;BME280;69137;50.878;8.050;2023-04-24T00:49:11;96945.16;;;9.71;77.76
79671;BME280;69137;50.878;8.050;2023-04-24T00:51:37;96939.91;;;9.74;77.38
79671;BME280;69137;50.878;8.050;2023-04-24T00:54:02;96933.59;;;9.60;77.95
79671;BME280;69137;50.878;8.050;2023-04-24T00:56:28;96936.06;;;9.75;77.60
79671;BME280;69137;50.878;8.050;2023-04-24T00:58:54;96924.66;;;9.73;77.07
79671;BME280;69137;50.878;8.050;2023-04-24T01:01:20;96927.28;;;9.59;78.31
79671;BME280;69137;50.878;8.050;2023-04-24T01:03:46;96925.41;;;9.60;78.36
79671;BME280;69137;50.878;8.050;2023-04-24T01:06:12;96920.38;;;9.67;78.43
79671;BME280;69137;50.878;8.050;2023-04-24T01:08:39;96916.84;;;9.67;79.20
79671;BME280;69137;50.878;8.050;2023-04-24T01:11:06;96926.66;;;9.68;79.23
79671;BME280;69137;50.878;8.050;2023-04-24T01:13:32;96928.53;;;9.67;79.63
79671;BME280;69137;50.878;8.050;2023-04-24T01:15:58;96922.34;;;9.61;80.55
79671;BME280;69137;50.878;8.050;2023-04-24T01:18:24;96931.56;;;9.47;82.02
79671;BME280;69137;50.878;8.050;2023-04-24T01:20:50;96941.31;;;9.53;81.94
79671;BME280;69137;50.878;8.050;2023-04-24T01:23:18;96929.88;;;9.70;82.35
79671;BME280;69137;50.878;8.050;2023-04-24T01:25:45;96939.53;;;9.43;82.61
79671;BME280;69137;50.878;8.050;2023-04-24T01:28:10;96939.81;;;9.23;83.82
79671;BME280;69137;50.878;8.050;2023-04-24T01:30:37;96937.94;;;9.18;83.86
79671;BME280;69137;50.878;8.050;2023-04-24T01:33:02;96939.34;;;9.15;83.55
79671;BME280;69137;50.878;8.050;2023-04-24T01:35:28;96934.19;;;9.14;84.36
79671;BME280;69137;50.878;8.050;2023-04-24T01:37:54;96928.72;;;8.95;85.20
79671;BME280;69137;50.878;8.050;2023-04-24T01:40:19;96934.72;;;8.92;85.94
79671;BME280;69137;50.878;8.050;2023-04-24T01:42:45;96924.88;;;8.96;85.67
79671;BME280;69137;50.878;8.050;2023-04-24T01:45:11;96929.16;;;9.02;85.07
79671;BME280;69137;50.878;8.050;2023-04-24T01:47:39;96928.63;;;9.00;85.03
79671;BME280;69137;50.878;8.050;2023-04-24T01:50:05;96919.00;;;9.08;84.52
79671;BME280;69137;50.878;8.050;2023-04-24T01:52:31;96929.47;;;9.01;84.21
79671;BME280;69137;50.878;8.050;2023-04-24T01:55:03;96917.19;;;9.03;84.37
79671;BME280;69137;50.878;8.050;2023-04-24T01:57:30;96914.44;;;9.03;84.69
79671;BME280;69137;50.878;8.050;2023-04-24T01:59:56;96915.84;;;9.01;83.76
79671;BME280;69137;50.878;8.050;2023-04-24T02:02:21;96915.78;;;9.06;84.10
79671;BME280;69137;50.878;8.050;2023-04-24T02:04:52;96920.91;;;9.07;84.50
79671;BME280;69137;50.878;8.050;2023-04-24T02:07:17;96924.09;;;8.95;85.09
79671;BME280;69137;50.878;8.050;2023-04-24T02:09:42;96927.50;;;9.06;85.37
79671;BME280;69137;50.878;8.050;2023-04-24T02:12:08;96938.72;;;9.24;84.72
79671;BME280;69137;50.878;8.050;2023-04-24T02:14:33;96940.19;;;9.16;84.50
79671;BME280;69137;50.878;8.050;2023-04-24T02:16:59;96939.38;;;9.34;84.26
79671;BME280;69137;50.878;8.050;2023-04-24T02:19:26;96934.94;;;9.19;83.48
79671;BME280;69137;50.878;8.050;2023-04-24T02:21:51;96933.47;;;9.27;81.95
79671;BME280;69137;50.878;8.050;2023-04-24T02:24:17;96931.94;;;9.21;83.20
79671;BME280;69137;50.878;8.050;2023-04-24T02:26:42;96934.19;;;9.14;82.75
79671;BME280;69137;50.878;8.050;2023-04-24T02:29:08;96925.16;;;9.18;82.61
79671;BME280;69137;50.878;8.050;2023-04-24T02:31:33;96937.00;;;9.09;83.04
79671;BME280;69137;50.878;8.050;2023-04-24T02:33:59;96940.00;;;9.07;82.24
79671;BME280;69137;50.878;8.050;2023-04-24T02:36:24;96926.97;;;9.04;82.33
79671;BME280;69137;50.878;8.050;2023-04-24T02:38:50;96928.56;;;9.05;81.59
79671;BME280;69137;50.878;8.050;2023-04-24T02:41:15;96917.47;;;9.02;81.15
79671;BME280;69137;50.878;8.050;2023-04-24T02:43:41;96927.66;;;8.91;82.57
79671;BME280;69137;50.878;8.050;2023-04-24T02:46:06;96927.44;;;8.87;83.21
79671;BME280;69137;50.878;8.050;2023-04-24T02:48:31;96922.75;;;8.93;82.68
79671;BME280;69137;50.878;8.050;2023-04-24T02:50:57;96929.88;;;8.89;82.88
79671;BME280;69137;50.878;8.050;2023-04-24T02:53:23;96924.66;;;8.92;83.28
79671;BME280;69137;50.878;8.050;2023-04-24T02:55:49;96936.81;;;9.00;82.25
79671;BME280;69137;50.878;8.050;2023-04-24T02:58:14;96923.63;;;8.88;82.64
79671;BME280;69137;50.878;8.050;2023-04-24T03:00:40;96933.91;;;8.91;83.70
79671;BME280;69137;50.878;8.050;2023-04-24T03:03:06;96934.22;;;8.90;83.90
79671;BME280;69137;50.878;8.050;2023-04-24T03:05:32;96941.50;;;8.94;83.50
79671;BME280;69137;50.878;8.050;2023-04-24T03:07:57;96943.91;;;8.77;84.13
79671;BME280;69137;50.878;8.050;2023-04-24T03:10:23;96947.19;;;8.74;83.55
79671;BME280;69137;50.878;8.050;2023-04-24T03:12:48;96949.47;;;8.67;84.10
79671;BME280;69137;50.878;8.050;2023-04-24T03:15:15;96952.19;;;8.67;82.16
79671;BME280;69137;50.878;8.050;2023-04-24T03:17:40;96948.47;;;8.58;82.65
79671;BME280;69137;50.878;8.050;2023-04-24T03:20:07;96955.38;;;8.45;82.82
79671;BME280;69137;50.878;8.050;2023-04-24T03:22:34;96951.84;;;8.44;84.39
79671;BME280;69137;50.878;8.050;2023-04-24T03:25:00;96954.75;;;8.24;83.70
79671;BME280;69137;50.878;8.050;2023-04-24T03:27:25;96969.88;;;8.35;82.95
79671;BME280;69137;50.878;8.050;2023-04-24T03:29:51;96962.81;;;8.34;82.08
79671;BME280;69137;50.878;8.050;2023-04-24T03:32:20;96962.91;;;8.24;82.64
79671;BME280;69137;50.878;8.050;2023-04-24T03:34:45;96965.34;;;8.25;80.48
79671;BME280;69137;50.878;8.050;2023-04-24T03:37:11;96968.56;;;8.27;78.31
79671;BME280;69137;50.878;8.050;2023-04-24T03:39:36;96975.47;;;8.20;79.67
79671;BME280;69137;50.878;8.050;2023-04-24T03:42:01;96984.16;;;8.17;79.01
79671;BME280;69137;50.878;8.050;2023-04-24T03:44:27;96979.69;;;8.02;76.86
79671;BME280;69137;50.878;8.050;2023-04-24T03:46:53;96986.25;;;7.96;78.26
79671;BME280;69137;50.878;8.050;2023-04-24T03:49:18;96987.31;;;8.00;78.41
79671;BME280;69137;50.878;8.050;2023-04-24T03:51:43;96981.97;;;7.84;77.69
79671;BME280;69137;50.878;8.050;2023-04-24T03:54:09;96988.28;;;7.75;78.01
79671;BME280;69137;50.878;8.050;2023-04-24T03:56:34;96991.53;;;7.77;77.23
79671;BME280;69137;50.878;8.050;2023-04-24T03:59:00;97004.72;;;7.54;77.95
79671;BME280;69137;50.878;8.050;2023-04-24T04:01:25;97002.88;;;7.44;78.42
79671;BME280;69137;50.878;8.050;2023-04-24T04:03:51;97003.91;;;7.54;77.58
79671;BME280;69137;50.878;8.050;2023-04-24T04:06:16;97007.69;;;7.63;77.46
79671;BME280;69137;50.878;8.050;2023-04-24T04:08:41;97013.38;;;7.61;76.89
79671;BME280;69137;50.878;8.050;2023-04-24T04:11:07;97016.13;;;7.56;77.12
79671;BME280;69137;50.878;8.050;2023-04-24T04:13:32;97010.75;;;7.46;78.03
79671;BME280;69137;50.878;8.050;2023-04-24T04:15:58;97013.19;;;7.48;77.98
79671;BME280;69137;50.878;8.050;2023-04-24T04:18:23;97006.13;;;7.41;78.63
79671;BME280;69137;50.878;8.050;2023-04-24T04:20:48;97020.03;;;7.40;78.06
79671;BME280;69137;50.878;8.050;2023-04-24T04:23:14;97024.06;;;7.48;77.84
79671;BME280;69137;50.878;8.050;2023-04-24T04:25:39;97027.09;;;7.36;77.14
79671;BME280;69137;50.878;8.050;2023-04-24T04:28:05;97015.41;;;7.35;76.21
79671;BME280;69137;50.878;8.050;2023-04-24T04:30:30;97018.41;;;7.34;76.00
79671;BME280;69137;50.878;8.050;2023-04-24T04:32:57;97018.97;;;7.31;76.09
79671;BME280;69137;50.878;8.050;2023-04-24T04:35:23;97026.28;;;7.35;76.18
79671;BME280;69137;50.878;8.050;2023-04-24T04:37:48;97027.44;;;7.24;76.65
79671;BME280;69137;50.878;8.050;2023-04-24T04:40:14;97035.28;;;7.26;75.53
79671;BME280;69137;50.878;8.050;2023-04-24T04:42:39;97034.19;;;7.32;75.68
79671;BME280;69137;50.878;8.050;2023-04-24T04:45:07;97045.31;;;7.30;75.59
79671;BME280;69137;50.878;8.050;2023-04-24T04:47:34;97043.16;;;7.27;75.18
79671;BME280;69137;50.878;8.050;2023-04-24T04:50:00;97051.53;;;7.36;75.18
79671;BME280;69137;50.878;8.050;2023-04-24T04:52:25;97043.13;;;7.37;75.39
79671;BME280;69137;50.878;8.050;2023-04-24T04:54:51;97050.69;;;7.46;75.83
79671;BME280;69137;50.878;8.050;2023-04-24T04:57:17;97048.00;;;7.40;75.48
79671;BME280;69137;50.878;8.050;2023-04-24T04:59:42;97048.78;;;7.46;76.24
79671;BME280;69137;50.878;8.050;2023-04-24T05:02:08;97046.09;;;7.41;75.62
79671;BME280;69137;50.878;8.050;2023-04-24T05:04:34;97044.94;;;7.52;75.52
79671;BME280;69137;50.878;8.050;2023-04-24T05:07:01;97044.91;;;7.57;75.97
79671;BME280;69137;50.878;8.050;2023-04-24T05:09:26;97069.13;;;7.54;76.44
79671;BME280;69137;50.878;8.050;2023-04-24T05:11:53;97061.56;;;7.46;75.50
79671;BME280;69137;50.878;8.050;2023-04-24T05:14:19;97061.03;;;7.38;75.71
79671;BME280;69137;50.878;8.050;2023-04-24T05:16:47;97069.75;;;7.40;73.73
79671;BME280;69137;50.878;8.050;2023-04-24T05:19:12;97063.78;;;7.28;74.83
79671;BME280;69137;50.878;8.050;2023-04-24T05:21:39;97061.09;;;7.23;74.95
79671;BME280;69137;50.878;8.050;2023-04-24T05:24:05;97064.88;;;7.37;74.04
79671;BME280;69137;50.878;8.050;2023-04-24T05:26:31;97052.38;;;7.26;75.19
79671;BME280;69137;50.878;8.050;2023-04-24T05:28:56;97076.84;;;7.26;73.84
79671;BME280;69137;50.878;8.050;2023-04-24T05:31:22;97077.69;;;7.21;74.69
79671;BME280;69137;50.878;8.050;2023-04-24T05:33:47;97067.66;;;7.17;75.37
79671;BME280;69137;50.878;8.050;2023-04-24T05:36:13;97067.03;;;7.35;73.95
79671;BME280;69137;50.878;8.050;2023-04-24T05:38:38;97072.25;;;7.27;75.09
79671;BME280;69137;50.878;8.050;2023-04-24T05:41:06;97077.66;;;7.37;74.82
79671;BME280;69137;50.878;8.050;2023-04-24T05:43:34;97073.28;;;7.36;74.07
79671;BME280;69137;50.878;8.050;2023-04-24T05:45:59;97075.72;;;7.37;73.52
79671;BME280;69137;50.878;8.050;2023-04-24T05:48:25;97084.72;;;7.33;72.71
79671;BME280;69137;50.878;8.050;2023-04-24T05:50:51;97066.47;;;7.38;73.55
79671;BME280;69137;50.878;8.050;2023-04-24T05:53:18;97080.31;;;7.47;72.11
79671;BME280;69137;50.878;8.050;2023-04-24T05:55:43;97080.22;;;7.62;73.69
79671;BME280;69137;50.878;8.050;2023-04-24T05:58:09;97075.34;;;7.59;72.10
79671;BME280;69137;50.878;8.050;2023-04-24T06:00:35;97084.00;;;7.72;73.08
79671;BME280;69137;50.878;8.050;2023-04-24T06:03:00;97087.03;;;7.65;72.62
79671;BME280;69137;50.878;8.050;2023-04-24T06:05:26;97086.53;;;7.53;73.55
79671;BME280;69137;50.878;8.050;2023-04-24T06:07:52;97087.91;;;7.55;71.54
79671;BME280;69137;50.878;8.050;2023-04-24T06:10:17;97097.63;;;7.66;72.40
79671;BME280;69137;50.878;8.050;2023-04-24T06:12:43;97096.53;;;7.62;72.64
79671;BME280;69137;50.878;8.050;2023-04-24T06:15:08;97103.31;;;7.65;72.33
79671;BME280;69137;50.878;8.050;2023-04-24T06:17:34;97096.00;;;7.65;72.71
79671;BME280;69137;50.878;8.050;2023-04-24T06:19:59;97091.09;;;7.62;72.70
79671;BME280;69137;50.878;8.050;2023-04-24T06:22:25;97090.81;;;7.69;72.63
79671;BME280;69137;50.878;8.050;2023-04-24T06:24:50;97094.03;;;7.81;72.97
79671;BME280;69137;50.878;8.050;2023-04-24T06:27:16;97094.25;;;7.90;72.33
79671;BME280;69137;50.878;8.050;2023-04-24T06:29:41;97085.84;;;7.86;71.71
79671;BME280;69137;50.878;8.050;2023-04-24T06:32:07;97081.03;;;7.73;73.25
79671;BME280;69137;50.878;8.050;2023-04-24T06:34:32;97088.34;;;7.73;72.98
79671;BME280;69137;50.878;8.050;2023-04-24T06:36:59;97092.41;;;7.75;72.85
79671;BME280;69137;50.878;8.050;2023-04-24T06:39:25;97088.13;;;7.64;72.95
79671;BME280;69137;50.878;8.050;2023-04-24T06:41:50;97087.81;;;7.76;71.94
79671;BME280;69137;50.878;8.050;2023-04-24T06:44:16;97086.44;;;7.78;73.12
79671;BME280;69137;50.878;8.050;2023-04-24T06:46:42;97085.34;;;7.74;72.25
79671;BME280;69137;50.878;8.050;2023-04-24T06:49:07;97091.09;;;7.68;72.57
79671;BME280;69137;50.878;8.050;2023-04-24T06:51:32;97083.50;;;7.59;72.77
79671;BME280;69137;50.878;8.050;2023-04-24T06:53:58;97085.13;;;7.71;72.47
79671;BME280;69137;50.878;8.050;2023-04-24T06:56:24;97080.53;;;7.61;72.27
79671;BME280;69137;50.878;8.050;2023-04-24T06:58:50;97079.16;;;7.63;72.79
79671;BME280;69137;50.878;8.050;2023-04-24T07:01:16;97079.41;;;7.67;73.55
79671;BME280;69137;50.878;8.050;2023-04-24T07:03:41;97075.03;;;7.76;72.42
79671;BME280;69137;50.878;8.050;2023-04-24T07:06:07;97082.84;;;7.83;71.91
79671;BME280;69137;50.878;8.050;2023-04-24T07:08:33;97070.97;;;7.74;72.28
79671;BME280;69137;50.878;8.050;2023-04-24T07:10:59;97078.53;;;7.82;72.40
79671;BME280;69137;50.878;8.050;2023-04-24T07:13:25;97088.03;;;7.84;72.30
79671;BME280;69137;50.878;8.050;2023-04-24T07:15:51;97088.78;;;7.95;73.51
79671;BME280;69137;50.878;8.050;2023-04-24T07:18:19;97074.22;;;7.76;74.72
79671;BME280;69137;50.878;8.050;2023-04-24T07:20:45;97078.16;;;7.94;73.80
79671;BME280;69137;50.878;8.050;2023-04-24T07:23:10;97074.06;;;7.96;74.09
79671;BME280;69137;50.878;8.050;2023-04-24T07:25:36;97073.84;;;7.93;72.68
79671;BME280;69137;50.878;8.050;2023-04-24T07:28:01;97086.31;;;7.94;73.24
79671;BME280;69137;50.878;8.050;2023-04-24T07:30:27;97081.97;;;7.98;73.40
79671;BME280;69137;50.878;8.050;2023-04-24T07:32:54;97089.56;;;8.01;72.16
79671;BME280;69137;50.878;8.050;2023-04-24T07:35:20;97078.16;;;7.94;71.91
79671;BME280;69137;50.878;8.050;2023-04-24T07:37:46;97081.97;;;7.98;72.33
79671;BME280;69137;50.878;8.050;2023-04-24T07:40:12;97081.63;;;8.09;71.72
79671;BME280;69137;50.878;8.050;2023-04-24T07:42:38;97084.34;;;8.09;71.19
79671;BME280;69137;50.878;8.050;2023-04-24T07:45:04;97098.19;;;8.13;71.92
79671;BME280;69137;50.878;8.050;2023-04-24T07:47:29;97095.69;;;8.22;71.18
79671;BME280;69137;50.878;8.050;2023-04-24T07:49:55;97097.91;;;8.20;71.95
79671;BME280;69137;50.878;8.050;2023-04-24T07:52:21;97100.88;;;8.18;72.18
79671;BME280;69137;50.878;8.050;2023-04-24T07:54:46;97108.56;;;8.06;71.65
79671;BME280;69137;50.878;8.050;2023-04-24T07:57:12;97114.56;;;8.03;72.72
79671;BME280;69137;50.878;8.050;2023-04-24T07:59:37;97108.56;;;8.06;74.79
79671;BME280;69137;50.878;8.050;2023-04-24T08:02:03;97118.13;;;7.98;73.66
79671;BME280;69137;50.878;8.050;2023-04-24T08:04:28;97119.50;;;7.96;73.89
79671;BME280;69137;50.878;8.050;2023-04-24T08:06:53;97109.13;;;8.03;74.14
79671;BME280;69137;50.878;8.050;2023-04-24T08:09:19;97129.91;;;7.83;74.89
79671;BME280;69137;50.878;8.050;2023-04-24T08:11:45;97123.41;;;7.79;76.46
79671;BME280;69137;50.878;8.050;2023-04-24T08:14:10;97132.34;;;7.85;76.55
79671;BME280;69137;50.878;8.050;2023-04-24T08:16:37;97134.00;;;7.81;76.63
79671;BME280;69137;50.878;8.050;2023-04-24T08:19:03;97137.25;;;7.78;76.79
79671;BME280;69137;50.878;8.050;2023-04-24T08:21:28;97148.97;;;7.78;76.90
79671;BME280;69137;50.878;8.050;2023-04-24T08:23:54;97164.22;;;7.69;79.61
79671;BME280;69137;50.878;8.050;2023-04-24T08:26:19;97163.72;;;7.57;79.82
79671;BME280;69137;50.878;8.050;2023-04-24T08:28:45;97161.25;;;7.60;79.82
79671;BME280;69137;50.878;8.050;2023-04-24T08:31:10;97154.69;;;7.72;78.75
79671;BME280;69137;50.878;8.050;2023-04-24T08:33:36;97154.50;;;7.53;79.83
79671;BME280;69137;50.878;8.050;2023-04-24T08:36:05;97160.47;;;7.50;79.38
79671;BME280;69137;50.878;8.050;2023-04-24T08:38:31;97169.47;;;7.40;81.70
79671;BME280;69137;50.878;8.050;2023-04-24T08:40:58;97162.66;;;7.42;81.29
79671;BME280;69137;50.878;8.050;2023-04-24T08:43:25;97158.56;;;7.50;82.89
79671;BME280;69137;50.878;8.050;2023-04-24T08:45:52;97160.16;;;7.66;82.42
79671;BME280;69137;50.878;8.050;2023-04-24T08:48:18;97158.53;;;7.65;82.61
79671;BME280;69137;50.878;8.050;2023-04-24T08:50:44;97167.75;;;7.70;82.95
79671;BME280;69137;50.878;8.050;2023-04-24T08:53:10;97166.94;;;7.64;81.17
79671;BME280;69137;50.878;8.050;2023-04-24T08:55:37;97166.72;;;7.55;83.22
79671;BME280;69137;50.878;8.050;2023-04-24T08:58:03;97172.41;;;7.59;83.65
79671;BME280;69137;50.878;8.050;2023-04-24T09:00:28;97173.22;;;7.59;80.89
79671;BME280;69137;50.878;8.050;2023-04-24T09:02:55;97183.28;;;7.54;81.67
79671;BME280;69137;50.878;8.050;2023-04-24T09:05:21;97197.19;;;7.37;83.12
79671;BME280;69137;50.878;8.050;2023-04-24T09:07:53;97192.03;;;7.30;83.92
79671;BME280;69137;50.878;8.050;2023-04-24T09:10:20;97194.50;;;7.27;83.00
79671;BME280;69137;50.878;8.050;2023-04-24T09:12:46;97187.97;;;7.07;83.99
79671;BME280;69137;50.878;8.050;2023-04-24T09:15:12;97199.66;;;6.92;83.25
79671;BME280;69137;50.878;8.050;2023-04-24T09:17:38;97217.28;;;6.90;82.74
79671;BME280;69137;50.878;8.050;2023-04-24T09:20:04;97213.75;;;6.79;84.82
79671;BME280;69137;50.878;8.050;2023-04-24T09:22:30;97223.56;;;6.75;84.40
79671;BME280;69137;50.878;8.050;2023-04-24T09:25:03;97224.34;;;6.65;85.16
79671;BME280;69137;50.878;8.050;2023-04-24T09:27:31;97227.88;;;6.66;85.71
79671;BME280;69137;50.878;8.050;2023-04-24T09:29:57;97244.13;;;6.55;83.86
79671;BME280;69137;50.878;8.050;2023-04-24T09:32:23;97233.81;;;6.47;84.70
79671;BME280;69137;50.878;8.050;2023-04-24T09:35:08;97247.91;;;6.44;85.77
79671;BME280;69137;50.878;8.050;2023-04-24T09:37:42;97245.44;;;6.43;85.54
79671;BME280;69137;50.878;8.050;2023-04-24T09:40:12;97264.75;;;6.51;86.16
79671;BME280;69137;50.878;8.050;2023-04-24T09:42:38;97255.75;;;6.36;85.52
79671;BME280;69137;50.878;8.050;2023-04-24T09:45:08;97272.59;;;6.43;84.52
79671;BME280;69137;50.878;8.050;2023-04-24T09:47:39;97274.44;;;6.27;85.49
79671;BME280;69137;50.878;8.050;2023-04-24T09:50:13;97297.69;;;6.07;84.01
79671;BME280;69137;50.878;8.050;2023-04-24T09:52:44;97310.63;;;5.95;85.89
79671;BME280;69137;50.878;8.050;2023-04-24T09:55:18;97309.88;;;5.67;83.25
79671;BME280;69137;50.878;8.050;2023-04-24T09:57:56;97333.69;;;5.60;86.96
79671;BME280;69137;50.878;8.050;2023-04-24T10:02:57;97333.16;;;5.63;86.32
79671;BME280;69137;50.878;8.050;2023-04-24T10:05:24;97319.47;;;5.43;83.97
79671;BME280;69137;50.878;8.050;2023-04-24T10:07:51;97338.91;;;5.35;84.55
79671;BME280;69137;50.878;8.050;2023-04-24T10:10:16;97331.22;;;5.26;84.82
79671;BME280;69137;50.878;8.050;2023-04-24T10:12:42;97315.84;;;5.32;84.66
79671;BME280;69137;50.878;8.050;2023-04-24T10:15:10;97320.75;;;5.35;85.85
79671;BME280;69137;50.878;8.050;2023-04-24T10:17:38;97333.81;;;5.43;85.34
79671;BME280;69137;50.878;8.050;2023-04-24T10:20:04;97322.41;;;5.41;86.91
79671;BME280;69137;50.878;8.050;2023-04-24T10:22:32;97326.50;;;5.44;86.45
79671;BME280;69137;50.878;8.050;2023-04-24T10:24:58;97336.31;;;5.50;87.37
79671;BME280;69137;50.878;8.050;2023-04-24T10:27:26;97334.47;;;5.56;87.04
79671;BME280;69137;50.878;8.050;2023-04-24T10:29:53;97344.00;;;5.63;86.66
79671;BME280;69137;50.878;8.050;2023-04-24T10:32:18;97330.97;;;5.60;85.88
79671;BME280;69137;50.878;8.050;2023-04-24T10:34:44;97342.38;;;5.67;87.51
79671;BME280;69137;50.878;8.050;2023-04-24T10:37:10;97343.03;;;5.80;87.57
79671;BME280;69137;50.878;8.050;2023-04-24T10:39:35;97341.38;;;5.74;86.38
79671;BME280;69137;50.878;8.050;2023-04-24T10:42:14;97339.78;;;5.83;87.72
79671;BME280;69137;50.878;8.050;2023-04-24T10:44:40;97355.91;;;5.95;88.54
79671;BME280;69137;50.878;8.050;2023-04-24T10:47:13;97357.03;;;6.04;87.00
79671;BME280;69137;50.878;8.050;2023-04-24T10:49:39;97361.06;;;6.01;88.75
79671;BME280;69137;50.878;8.050;2023-04-24T10:52:05;97355.13;;;6.04;86.40
79671;BME280;69137;50.878;8.050;2023-04-24T10:54:47;97369.25;;;6.06;88.09
79671;BME280;69137;50.878;8.050;2023-04-24T11:00:11;97382.31;;;6.15;84.07
79671;BME280;69137;50.878;8.050;2023-04-24T11:02:39;97380.72;;;6.19;86.54
79671;BME280;69137;50.878;8.050;2023-04-24T11:05:06;97381.28;;;6.21;86.88
79671;BME280;69137;50.878;8.050;2023-04-24T11:10:38;97394.94;;;6.36;87.38
79671;BME280;69137;50.878;8.050;2023-04-24T11:13:04;97401.25;;;6.52;88.91
79671;BME280;69137;50.878;8.050;2023-04-24T11:15:30;97389.84;;;6.55;86.50
79671;BME280;69137;50.878;8.050;2023-04-24T11:17:55;97393.16;;;6.62;87.47
79671;BME280;69137;50.878;8.050;2023-04-24T11:20:23;97400.19;;;6.58;87.29
79671;BME280;69137;50.878;8.050;2023-04-24T11:22:53;97401.00;;;6.64;88.10
79671;BME280;69137;50.878;8.050;2023-04-24T11:25:20;97402.16;;;6.73;88.26
79671;BME280;69137;50.878;8.050;2023-04-24T11:27:47;97398.66;;;6.83;87.70
79671;BME280;69137;50.878;8.050;2023-04-24T11:30:19;97410.91;;;6.90;87.77
79671;BME280;69137;50.878;8.050;2023-04-24T11:32:48;97402.22;;;6.88;86.92
79671;BME280;69137;50.878;8.050;2023-04-24T11:35:19;97406.59;;;6.99;88.39
79671;BME280;69137;50.878;8.050;2023-04-24T11:37:50;97408.78;;;7.08;86.04
79671;BME280;69137;50.878;8.050;2023-04-24T11:40:17;97409.38;;;7.20;85.78
79671;BME280;69137;50.878;8.050;2023-04-24T11:42:47;97420.25;;;7.30;88.62
79671;BME280;69137;50.878;8.050;2023-04-24T11:45:27;97402.34;;;7.34;83.62
79671;BME280;69137;50.878;8.050;2023-04-24T11:47:53;97408.59;;;7.45;84.78
79671;BME280;69137;50.878;8.050;2023-04-24T11:50:20;97406.72;;;7.51;86.66
79671;BME280;69137;50.878;8.050;2023-04-24T11:52:47;97418.66;;;7.55;86.77
79671;BME280;69137;50.878;8.050;2023-04-24T11:57:46;97416.22;;;7.43;86.06
79671;BME280;69137;50.878;8.050;2023-04-24T12:00:28;97417.81;;;7.39;87.18
79671;BME280;69137;50.878;8.050;2023-04-24T12:03:06;97425.97;;;7.39;84.12
79671;BME280;69137;50.878;8.050;2023-04-24T12:05:32;97422.97;;;7.30;85.70
79671;BME280;69137;50.878;8.050;2023-04-24T12:07:58;97427.31;;;7.31;86.67
79671;BME280;69137;50.878;8.050;2023-04-24T12:10:26;97436.53;;;7.20;87.19
79671;BME280;69137;50.878;8.050;2023-04-24T12:12:53;97435.72;;;7.19;86.49
79671;BME280;69137;50.878;8.050;2023-04-24T12:15:20;97436.56;;;7.30;87.79
79671;BME280;69137;50.878;8.050;2023-04-24T12:17:45;97432.78;;;7.41;88.04
79671;BME280;69137;50.878;8.050;2023-04-24T12:20:12;97440.91;;;7.36;85.92
79671;BME280;69137;50.878;8.050;2023-04-24T12:22:48;97448.53;;;7.29;85.38
79671;BME280;69137;50.878;8.050;2023-04-24T12:25:15;97452.31;;;7.33;86.44
79671;BME280;69137;50.878;8.050;2023-04-24T12:27:42;97449.34;;;7.40;87.00
79671;BME280;69137;50.878;8.050;2023-04-24T12:30:13;97452.34;;;7.49;87.22
79671;BME280;69137;50.878;8.050;2023-04-24T12:32:44;97456.47;;;7.61;84.81
79671;BME280;69137;50.878;8.050;2023-04-24T12:35:10;97462.97;;;7.55;83.97
79671;BME280;69137;50.878;8.050;2023-04-24T12:37:35;97456.44;;;7.46;86.00
79671;BME280;69137;50.878;8.050;2023-04-24T12:40:07;97459.94;;;7.47;83.21
79671;BME280;69137;50.878;8.050;2023-04-24T12:42:33;97462.13;;;7.50;84.36
79671;BME280;69137;50.878;8.050;2023-04-24T12:45:02;97471.13;;;7.50;83.93
79671;BME280;69137;50.878;8.050;2023-04-24T12:47:28;97466.75;;;7.49;82.30
79671;BME280;69137;50.878;8.050;2023-04-24T12:49:54;97467.31;;;7.51;83.90
79671;BME280;69137;50.878;8.050;2023-04-24T12:52:24;97476.84;;;7.59;84.59
79671;BME280;69137;50.878;8.050;2023-04-24T12:54:53;97480.88;;;7.41;82.83
79671;BME280;69137;50.878;8.050;2023-04-24T12:57:18;97486.56;;;7.29;84.32
79671;BME280;69137;50.878;8.050;2023-04-24T12:59:44;97489.28;;;7.29;82.88
79671;BME280;69137;50.878;8.050;2023-04-24T13:02:10;97483.47;;;7.10;82.81
79671;BME280;69137;50.878;8.050;2023-04-24T13:04:36;97481.06;;;7.14;85.62
79671;BME280;69137;50.878;8.050;2023-04-24T13:07:01;97484.38;;;7.31;86.25
79671;BME280;69137;50.878;8.050;2023-04-24T13:09:27;97482.75;;;7.35;86.13
79671;BME280;69137;50.878;8.050;2023-04-24T13:11:52;97491.44;;;7.27;86.09
79671;BME280;69137;50.878;8.050;2023-04-24T13:14:18;97492.50;;;7.26;84.04
79671;BME280;69137;50.878;8.050;2023-04-24T13:16:43;97499.81;;;7.20;85.08